Time;durP1;ratioP1;P1;durP2;ratioP2;P2;SDS_P1;SDS_P2;PMS_P1;PMS_P2;Temp;Humidity;BMP_temperature;BMP_pressure;BME280_temperature;BME280_humidity;BME280_pressure;Samples;Min_cycle;Max_cycle;Signal;HPM_P1;HPM_P2
2021/04/17 00:00:49;;;;;;;8.33;3.80;;;10.40;45.50;;;;;;5114623;28;20031;-66
2021/04/17 00:03:14;;;;;;;7.10;4.33;;;10.40;44.60;;;;;;5114770;28;20498;-66
2021/04/17 00:05:40;;;;;;;8.43;4.27;;;10.40;44.00;;;;;;5113699;28;20136;-67
2021/04/17 00:08:06;;;;;;;5.80;4.40;;;10.40;43.70;;;;;;5114324;28;20028;-67
2021/04/17 00:10:32;;;;;;;9.73;4.77;;;;;;;;;;5114505;28;20016;-67
2021/04/17 00:12:58;;;;;;;6.67;4.10;;;10.40;43.10;;;;;;5114576;28;20095;-66
2021/04/17 00:15:24;;;;;;;6.63;4.00;;;10.40;43.60;;;;;;5114404;28;20410;-67
2021/04/17 00:17:49;;;;;;;7.63;4.70;;;10.50;43.80;;;;;;5114287;28;20020;-67
2021/04/17 00:20:15;;;;;;;6.77;5.00;;;10.40;43.40;;;;;;5114072;28;20054;-67
2021/04/17 00:22:41;;;;;;;9.80;4.70;;;10.40;43.30;;;;;;5113984;28;20079;-66
2021/04/17 00:25:07;;;;;;;9.13;4.53;;;10.40;43.00;;;;;;5114371;28;20101;-66
2021/04/17 00:27:33;;;;;;;8.20;4.50;;;10.40;43.60;;;;;;5113938;28;20049;-67
2021/04/17 00:29:59;;;;;;;8.60;5.00;;;10.40;43.40;;;;;;5114018;28;20020;-67
2021/04/17 00:32:25;;;;;;;8.27;5.43;;;10.50;43.40;;;;;;5114462;28;20383;-66
2021/04/17 00:34:50;;;;;;;7.70;4.40;;;10.40;43.20;;;;;;5113886;28;20028;-66
2021/04/17 00:37:16;;;;;;;7.40;4.73;;;10.50;42.50;;;;;;5113823;28;20055;-67
2021/04/17 00:39:42;;;;;;;7.10;4.67;;;10.50;43.10;;;;;;5113551;28;20031;-66
2021/04/17 00:42:08;;;;;;;6.93;4.63;;;10.50;42.40;;;;;;5113696;28;20042;-66
2021/04/17 00:44:35;;;;;;;8.20;5.20;;;10.50;42.50;;;;;;5113630;28;20251;-67
2021/04/17 00:47:03;;;;;;;9.43;4.77;;;10.40;42.90;;;;;;5113880;28;20028;-66
2021/04/17 00:49:30;;;;;;;8.70;4.80;;;10.40;43.10;;;;;;5113717;28;20020;-67
2021/04/17 00:51:55;;;;;;;7.30;4.27;;;10.40;43.60;;;;;;5113463;28;20020;-66
2021/04/17 00:54:21;;;;;;;8.63;5.03;;;10.40;43.90;;;;;;5113627;28;20023;-66
2021/04/17 00:56:47;;;;;;;10.33;4.70;;;10.30;44.00;;;;;;5113568;28;20476;-66
2021/04/17 00:59:12;;;;;;;9.57;4.60;;;10.30;43.80;;;;;;5111432;28;20059;-66
2021/04/17 01:01:38;;;;;;;8.00;5.10;;;10.20;44.00;;;;;;5110318;28;20128;-66
2021/04/17 01:04:08;;;;;;;8.63;4.70;;;10.20;44.20;;;;;;5110363;28;20031;-66
2021/04/17 01:07:02;;;;;;;11.07;4.80;;;10.20;44.10;;;;;;5112335;28;20420;-66
2021/04/17 01:09:46;;;;;;;9.27;4.90;;;10.20;44.40;;;;;;5113415;28;20024;-66
2021/04/17 01:12:16;;;;;;;8.10;4.93;;;10.20;44.40;;;;;;5113507;28;20019;-66
2021/04/17 01:14:45;;;;;;;11.93;5.00;;;10.10;44.40;;;;;;5112724;28;20024;-66
2021/04/17 01:17:12;;;;;;;8.20;4.83;;;10.10;44.30;;;;;;5113248;28;20015;-66
2021/04/17 01:19:38;;;;;;;7.33;5.00;;;10.10;44.60;;;;;;5113193;28;20024;-66
2021/04/17 01:22:08;;;;;;;7.80;5.13;;;10.10;45.00;;;;;;5112728;28;20052;-66
2021/04/17 01:24:36;;;;;;;8.83;4.47;;;10.00;45.40;;;;;;5113375;28;20019;-66
2021/04/17 01:27:05;;;;;;;8.40;5.23;;;10.00;45.60;;;;;;5113372;28;20024;-66
2021/04/17 01:29:31;;;;;;;13.57;5.10;;;9.90;46.20;;;;;;5113147;28;20035;-67
2021/04/17 01:31:59;;;;;;;9.57;4.77;;;9.90;46.00;;;;;;5113462;28;20094;-67
2021/04/17 01:34:26;;;;;;;8.67;4.90;;;9.90;46.80;;;;;;5112936;28;20040;-66
2021/04/17 01:36:52;;;;;;;16.33;5.47;;;9.80;47.10;;;;;;5112879;28;20030;-67
2021/04/17 01:39:20;;;;;;;13.67;4.90;;;9.80;46.10;;;;;;5113116;28;20026;-67
2021/04/17 01:41:52;;;;;;;12.03;4.80;;;9.80;46.70;;;;;;5112910;28;20385;-67
2021/04/17 01:44:25;;;;;;;24.60;5.55;;;9.70;46.50;;;;;;5112742;28;20031;-67
2021/04/17 01:47:09;;;;;;;18.83;5.28;;;9.70;47.50;;;;;;5112704;28;20019;-66
2021/04/17 01:49:48;;;;;;;13.37;4.93;;;9.60;48.40;;;;;;5113093;28;20069;-67
2021/04/17 01:52:20;;;;;;;12.00;4.63;;;9.60;47.40;;;;;;5112571;28;20096;-67
2021/04/17 01:54:50;;;;;;;9.53;4.80;;;9.70;46.60;;;;;;5112859;28;20027;-67
2021/04/17 01:57:21;;;;;;;10.63;5.10;;;9.60;47.60;;;;;;5112922;28;20028;-67
2021/04/17 01:59:48;;;;;;;13.17;4.90;;;9.50;46.10;;;;;;5112561;28;20102;-67
2021/04/17 02:02:17;;;;;;;9.97;4.90;;;9.50;48.00;;;;;;5112797;28;20115;-67
2021/04/17 02:04:43;;;;;;;13.00;5.77;;;9.50;47.70;;;;;;5113050;28;20384;-67
2021/04/17 02:07:09;;;;;;;7.50;5.23;;;9.40;49.60;;;;;;5113146;28;20020;-67
2021/04/17 02:09:35;;;;;;;15.00;4.60;;;9.40;49.40;;;;;;5112881;28;20034;-67
2021/04/17 02:12:00;;;;;;;12.57;4.80;;;9.40;49.30;;;;;;5113018;28;20024;-67
2021/04/17 02:14:26;;;;;;;10.17;4.83;;;9.40;49.60;;;;;;5112999;28;20020;-67
2021/04/17 02:17:09;;;;;;;8.17;4.87;;;9.30;48.60;;;;;;5112778;28;20020;-67
2021/04/17 02:19:43;;;;;;;14.30;4.80;;;9.30;50.00;;;;;;5112962;28;20047;-67
2021/04/17 02:22:10;;;;;;;22.93;5.10;;;9.30;50.00;;;;;;5111375;28;20446;-67
2021/04/17 02:24:38;;;;;;;9.87;4.67;;;9.20;51.20;;;;;;5112704;28;20023;-67
2021/04/17 02:27:04;;;;;;;14.73;5.13;;;9.20;50.30;;;;;;5112786;28;20038;-67
2021/04/17 02:29:30;;;;;;;9.20;4.63;;;9.10;49.70;;;;;;5112848;28;20028;-67
2021/04/17 02:31:56;;;;;;;11.33;4.73;;;9.10;50.00;;;;;;5116370;28;20080;-67
2021/04/17 02:34:22;;;;;;;6.73;4.40;;;9.10;49.90;;;;;;5116204;28;20468;-67
2021/04/17 02:36:48;;;;;;;10.63;4.97;;;9.10;49.90;;;;;;5116096;28;20023;-67
2021/04/17 02:39:14;;;;;;;9.53;4.60;;;9.00;50.40;;;;;;5116465;28;20027;-66
2021/04/17 02:41:40;;;;;;;7.73;4.20;;;9.00;50.60;;;;;;5116273;28;20365;-67
2021/04/17 02:44:05;;;;;;;14.60;5.07;;;9.00;50.90;;;;;;5116489;28;20031;-67
2021/04/17 02:46:32;;;;;;;11.17;4.93;;;9.00;51.00;;;;;;5116268;28;20030;-67
2021/04/17 02:48:58;;;;;;;10.87;5.00;;;9.00;51.30;;;;;;5116174;28;20027;-67
2021/04/17 02:51:24;;;;;;;7.80;4.73;;;8.90;51.50;;;;;;5115610;28;20031;-67
2021/04/17 02:53:51;;;;;;;8.87;4.97;;;8.90;50.80;;;;;;5115932;28;20095;-66
2021/04/17 02:56:17;;;;;;;9.23;5.13;;;8.90;50.80;;;;;;5115868;28;20019;-67
2021/04/17 02:58:43;;;;;;;8.70;4.40;;;8.90;50.70;;;;;;5116130;28;20016;-67
2021/04/17 03:01:08;;;;;;;8.63;4.40;;;8.80;51.50;;;;;;5115916;28;20024;-67
2021/04/17 03:03:34;;;;;;;9.80;4.70;;;8.80;50.60;;;;;;5115843;28;20356;-67
2021/04/17 03:06:00;;;;;;;21.00;5.20;;;8.80;51.20;;;;;;5115777;28;20027;-67
2021/04/17 03:08:26;;;;;;;19.83;5.00;;;8.80;51.50;;;;;;5115989;28;20020;-67
2021/04/17 03:10:52;;;;;;;16.10;4.97;;;8.80;53.30;;;;;;5116153;28;20392;-67
2021/04/17 03:13:17;;;;;;;20.93;5.43;;;8.80;52.60;;;;;;5115782;28;20098;-67
2021/04/17 03:15:43;;;;;;;17.63;4.93;;;8.80;51.90;;;;;;5115476;28;20107;-67
2021/04/17 03:18:10;;;;;;;23.07;4.97;;;8.70;51.40;;;;;;5115434;28;20027;-67
2021/04/17 03:20:36;;;;;;;12.17;5.00;;;8.70;53.50;;;;;;5115098;28;20042;-67
2021/04/17 03:23:03;;;;;;;12.63;4.80;;;8.70;53.10;;;;;;5116042;28;20046;-67
2021/04/17 03:25:29;;;;;;;12.50;5.10;;;8.60;53.60;;;;;;5115512;28;20102;-67
2021/04/17 03:27:55;;;;;;;10.73;4.60;;;8.60;53.50;;;;;;5115623;28;20118;-67
2021/04/17 03:30:28;;;;;;;8.70;4.83;;;8.60;53.10;;;;;;5115327;28;20483;-67
2021/04/17 03:32:56;;;;;;;9.13;4.40;;;8.60;52.80;;;;;;5115031;28;20023;-67
2021/04/17 03:35:24;;;;;;;13.70;4.47;;;8.50;53.00;;;;;;5115380;28;20034;-67
2021/04/17 03:37:50;;;;;;;15.10;4.63;;;8.50;54.80;;;;;;5115326;28;20031;-67
2021/04/17 03:40:16;;;;;;;10.97;4.93;;;8.40;54.50;;;;;;5114996;28;20476;-67
2021/04/17 03:42:42;;;;;;;6.63;4.37;;;8.40;53.10;;;;;;5115150;28;20032;-67
2021/04/17 03:45:09;;;;;;;7.27;4.63;;;8.40;53.20;;;;;;5115143;28;20080;-66
2021/04/17 03:47:35;;;;;;;6.53;4.47;;;8.40;53.10;;;;;;5114874;28;20028;-67
2021/04/17 03:50:03;;;;;;;11.80;4.37;;;8.40;52.50;;;;;;5115389;28;20360;-67
2021/04/17 03:52:28;;;;;;;17.03;4.90;;;8.40;51.80;;;;;;5114890;28;20054;-67
2021/04/17 03:54:54;;;;;;;21.77;5.00;;;8.40;51.90;;;;;;5115111;28;20435;-67
2021/04/17 03:57:20;;;;;;;13.70;5.00;;;8.40;52.30;;;;;;5114771;28;20024;-67
2021/04/17 03:59:46;;;;;;;13.33;4.97;;;8.40;51.90;;;;;;5114749;28;20032;-66
2021/04/17 04:02:13;;;;;;;12.20;4.70;;;8.40;51.40;;;;;;5114849;28;20023;-66
2021/04/17 04:04:38;;;;;;;22.07;4.97;;;8.40;51.20;;;;;;5114617;28;20491;-67
2021/04/17 04:07:05;;;;;;;13.40;4.77;;;8.40;51.50;;;;;;5114737;28;20027;-67
2021/04/17 04:09:31;;;;;;;9.10;4.83;;;8.40;50.60;;;;;;5114740;28;20024;-67
2021/04/17 04:11:57;;;;;;;10.00;5.30;;;8.40;51.50;;;;;;5114400;28;20026;-67
2021/04/17 04:14:24;;;;;;;11.30;5.23;;;8.50;50.40;;;;;;5114524;28;20024;-67
2021/04/17 04:16:50;;;;;;;8.73;4.97;;;8.50;50.80;;;;;;5114370;28;20019;-67
2021/04/17 04:19:16;;;;;;;7.07;5.17;;;8.50;51.60;;;;;;5114267;28;20034;-67
2021/04/17 04:21:42;;;;;;;6.87;5.00;;;8.60;51.30;;;;;;5113879;28;20097;-67
2021/04/17 04:24:08;;;;;;;7.13;4.93;;;8.60;50.80;;;;;;5114109;28;20024;-67
2021/04/17 04:26:33;;;;;;;9.33;5.50;;;8.60;50.50;;;;;;5114344;28;20406;-67
2021/04/17 04:28:59;;;;;;;6.37;4.77;;;8.60;49.70;;;;;;5114179;28;20023;-67
2021/04/17 04:31:25;;;;;;;8.37;5.03;;;8.60;49.30;;;;;;5113907;28;20023;-67
2021/04/17 04:33:51;;;;;;;12.33;5.43;;;8.70;49.40;;;;;;5113963;28;20027;-66
2021/04/17 04:36:16;;;;;;;8.90;5.33;;;8.70;50.40;;;;;;5113807;28;20023;-67
2021/04/17 04:38:42;;;;;;;6.63;4.73;;;8.60;49.60;;;;;;5114248;28;20043;-67
2021/04/17 04:41:08;;;;;;;9.03;4.73;;;8.70;49.60;;;;;;5113818;28;20470;-67
2021/04/17 04:43:33;;;;;;;8.03;5.03;;;8.70;50.30;;;;;;5113899;28;20019;-67
2021/04/17 04:45:59;;;;;;;8.67;5.40;;;8.70;49.90;;;;;;5113326;28;20555;-67
2021/04/17 04:48:25;;;;;;;11.97;5.60;;;8.70;49.70;;;;;;5113276;28;20420;-67
2021/04/17 04:50:50;;;;;;;8.27;5.13;;;8.70;49.90;;;;;;5113645;28;20020;-67
2021/04/17 04:53:16;;;;;;;10.77;5.00;;;8.70;50.20;;;;;;5113322;28;20588;-67
2021/04/17 04:55:42;;;;;;;10.60;5.00;;;8.80;50.20;;;;;;5113892;28;20106;-67
2021/04/17 04:58:07;;;;;;;9.90;5.23;;;8.80;50.80;;;;;;5113418;28;20020;-67
2021/04/17 05:00:33;;;;;;;11.20;5.73;;;8.80;50.50;;;;;;5113503;28;20107;-66
2021/04/17 05:02:59;;;;;;;6.47;5.07;;;8.90;51.00;;;;;;5113540;28;20042;-67
2021/04/17 05:05:25;;;;;;;9.47;5.03;;;8.90;50.30;;;;;;5113636;28;20511;-67
2021/04/17 05:07:51;;;;;;;10.87;5.30;;;8.90;51.20;;;;;;5113425;28;20031;-67
2021/04/17 05:10:16;;;;;;;6.70;4.77;;;8.90;51.20;;;;;;5113418;28;20030;-66
2021/04/17 05:12:42;;;;;;;6.87;5.20;;;8.90;51.70;;;;;;5113533;28;20114;-66
2021/04/17 05:15:09;;;;;;;10.13;5.07;;;9.00;51.20;;;;;;5113126;28;20016;-66
2021/04/17 05:17:34;;;;;;;6.67;4.70;;;9.00;51.70;;;;;;5113405;28;20023;-66
2021/04/17 05:20:00;;;;;;;10.50;5.87;;;9.00;50.80;;;;;;5113254;28;20016;-67
2021/04/17 05:22:26;;;;;;;9.47;5.53;;;9.00;51.90;;;;;;5112575;28;20047;-67
2021/04/17 05:24:52;;;;;;;11.03;4.77;;;9.00;52.40;;;;;;5112991;28;20046;-66
2021/04/17 05:27:19;;;;;;;11.43;5.70;;;9.10;52.30;;;;;;5113216;28;20038;-66
2021/04/17 05:29:45;;;;;;;8.30;4.90;;;9.10;51.80;;;;;;5113417;28;20027;-66
2021/04/17 05:32:10;;;;;;;10.13;5.17;;;9.10;52.20;;;;;;5113327;28;20022;-67
2021/04/17 05:34:37;;;;;;;9.10;5.87;;;9.20;53.20;;;;;;5113254;28;20023;-67
2021/04/17 05:37:02;;;;;;;6.53;5.30;;;9.20;52.00;;;;;;5113178;28;20028;-67
2021/04/17 05:39:28;;;;;;;6.77;5.10;;;9.20;50.30;;;;;;5113179;28;20024;-67
2021/04/17 05:41:54;;;;;;;6.63;5.10;;;9.20;50.30;;;;;;5113065;28;20035;-67
2021/04/17 05:44:20;;;;;;;10.47;5.47;;;9.30;50.70;;;;;;5113205;28;20144;-68
2021/04/17 05:46:46;;;;;;;8.67;4.83;;;9.40;49.40;;;;;;5113192;28;20096;-66
2021/04/17 05:49:12;;;;;;;6.97;5.60;;;9.40;49.50;;;;;;5113134;28;20023;-67
2021/04/17 05:51:40;;;;;;;9.70;5.30;;;9.50;49.50;;;;;;5113022;28;20463;-67
2021/04/17 05:54:06;;;;;;;8.00;5.57;;;9.50;50.80;;;;;;5113238;28;20495;-66
2021/04/17 05:56:32;;;;;;;7.80;5.50;;;9.50;50.70;;;;;;5112548;28;20047;-67
2021/04/17 05:58:58;;;;;;;8.00;5.80;;;9.50;50.10;;;;;;5112752;28;20517;-67
2021/04/17 06:01:24;;;;;;;7.10;5.03;;;9.60;49.90;;;;;;5112648;28;20068;-67
2021/04/17 06:03:50;;;;;;;7.67;5.23;;;9.60;50.40;;;;;;5113493;28;20476;-67
2021/04/17 06:06:16;;;;;;;5.73;5.17;;;9.70;50.60;;;;;;5117084;28;20020;-66
2021/04/17 06:08:42;;;;;;;9.73;5.30;;;9.60;51.00;;;;;;5117147;28;20039;-67
2021/04/17 06:11:08;;;;;;;11.07;5.13;;;9.70;50.90;;;;;;5116767;28;20031;-67
2021/04/17 06:13:34;;;;;;;9.13;5.40;;;9.70;51.40;;;;;;5116785;28;20023;-67
2021/04/17 06:16:05;;;;;;;7.83;5.47;;;9.80;50.70;;;;;;5116808;28;20414;-67
2021/04/17 06:18:34;;;;;;;6.43;5.50;;;9.80;50.00;;;;;;5116844;28;20019;-67
2021/04/17 06:21:00;;;;;;;8.70;5.50;;;9.90;48.70;;;;;;5116364;28;20048;-66
2021/04/17 06:23:26;;;;;;;7.83;6.10;;;9.90;49.90;;;;;;5116573;28;20039;-66
2021/04/17 06:25:52;;;;;;;9.60;5.50;;;9.90;50.00;;;;;;5116372;28;20020;-66
2021/04/17 06:28:19;;;;;;;7.20;5.67;;;10.00;50.60;;;;;;5116290;28;20035;-66
2021/04/17 06:30:45;;;;;;;7.53;5.77;;;10.00;50.50;;;;;;5116359;28;20073;-66
2021/04/17 06:33:11;;;;;;;7.83;5.30;;;10.10;50.40;;;;;;5116125;28;20059;-66
2021/04/17 06:35:38;;;;;;;8.30;5.50;;;10.10;50.10;;;;;;5116173;28;20023;-66
2021/04/17 06:38:04;;;;;;;6.50;5.13;;;10.20;49.90;;;;;;5116432;28;20057;-66
2021/04/17 06:40:30;;;;;;;8.57;5.67;;;10.20;49.60;;;;;;5116341;28;20027;-66
2021/04/17 06:42:58;;;;;;;6.13;5.50;;;10.30;49.80;;;;;;5115425;28;20047;-66
2021/04/17 06:45:25;;;;;;;5.63;4.77;;;10.40;50.30;;;;;;5115871;28;20027;-66
2021/04/17 06:47:51;;;;;;;6.67;5.43;;;10.40;49.80;;;;;;5114485;28;20498;-66
2021/04/17 06:50:18;;;;;;;7.03;5.17;;;10.40;49.30;;;;;;5112362;28;20115;-66
2021/04/17 06:52:46;;;;;;;6.37;5.03;;;10.50;48.40;;;;;;5112949;28;20042;-66
2021/04/17 06:55:12;;;;;;;6.87;5.30;;;10.60;48.50;;;;;;5113697;28;20027;-67
2021/04/17 06:57:40;;;;;;;8.43;5.30;;;10.60;47.60;;;;;;5115378;28;20065;-67
2021/04/17 07:00:12;;;;;;;8.37;4.80;;;10.70;47.80;;;;;;5112248;28;20082;-71
2021/04/17 07:02:39;;;;;;;8.90;5.00;;;10.70;48.30;;;;;;5112390;28;20118;-72
2021/04/17 07:05:05;;;;;;;5.33;4.50;;;10.80;48.60;;;;;;5114855;28;20023;-72
2021/04/17 07:07:32;;;;;;;9.83;4.83;;;10.80;48.10;;;;;;5115351;27;20027;-71
2021/04/17 07:09:58;;;;;;;5.20;4.60;;;10.80;47.80;;;;;;5115332;28;20031;-71
2021/04/17 07:12:24;;;;;;;7.63;4.63;;;10.90;49.30;;;;;;5113721;28;20487;-71
2021/04/17 07:14:52;;;;;;;9.20;4.90;;;10.90;48.70;;;;;;5114788;28;20081;-71
2021/04/17 07:17:19;;;;;;;5.93;5.03;;;11.00;48.20;;;;;;5114961;28;20475;-71
2021/04/17 07:19:59;;;;;;;5.80;5.00;;;11.10;47.00;;;;;;5115210;28;20026;-71
2021/04/17 07:22:31;;;;;;;5.70;4.40;;;11.10;47.10;;;;;;5114684;28;20505;-71
2021/04/17 07:25:15;;;;;;;8.65;5.30;;;11.10;47.40;;;;;;5115169;28;20020;-70
2021/04/17 07:27:50;;;;;;;7.43;4.90;;;11.20;48.00;;;;;;5114911;28;20108;-71
2021/04/17 07:30:15;;;;;;;7.33;5.10;;;11.20;47.10;;;;;;5114861;28;20027;-71
2021/04/17 07:32:42;;;;;;;7.20;4.72;;;11.30;46.60;;;;;;5114870;28;20035;-70
2021/04/17 07:35:15;;;;;;;7.00;4.95;;;11.40;46.70;;;;;;5115059;28;20019;-70
2021/04/17 07:37:42;;;;;;;10.55;4.80;;;11.40;47.20;;;;;;5114811;28;20024;-71
2021/04/17 07:40:27;;;;;;;5.40;4.53;;;11.50;47.30;;;;;;5114450;28;20037;-70
2021/04/17 07:42:55;;;;;;;5.93;4.97;;;11.50;46.10;;;;;;5114274;28;20040;-70
2021/04/17 07:45:21;;;;;;;9.10;5.22;;;11.60;47.00;;;;;;5114505;28;20012;-71
2021/04/17 07:47:47;;;;;;;5.80;4.45;;;11.70;46.90;;;;;;5114585;28;20110;-71
2021/04/17 07:50:13;;;;;;;4.53;4.05;;;11.70;46.90;;;;;;5114481;28;20050;-71
2021/04/17 07:52:39;;;;;;;6.32;4.43;;;11.80;45.70;;;;;;5113742;28;20028;-73
2021/04/17 07:55:05;;;;;;;5.25;4.43;;;11.90;45.60;;;;;;5113181;28;20103;-71
2021/04/17 07:57:35;;;;;;;12.50;4.78;;;11.90;45.80;;;;;;5114098;28;20168;-71
2021/04/17 08:00:03;;;;;;;5.05;4.30;;;12.00;46.50;;;;;;5113200;28;20099;-70
2021/04/17 08:02:31;;;;;;;9.77;4.07;;;12.00;45.30;;;;;;5114675;28;20035;-70
2021/04/17 08:04:58;;;;;;;5.25;4.53;;;12.10;44.90;;;;;;5112489;28;20031;-71
2021/04/17 08:07:24;;;;;;;6.30;4.07;;;12.10;44.00;;;;;;5113800;28;20077;-71
2021/04/17 08:09:52;;;;;;;5.15;4.00;;;12.20;46.00;;;;;;5113158;28;20032;-70
2021/04/17 08:12:20;;;;;;;6.97;3.88;;;12.20;45.20;;;;;;5114023;28;20433;-70
2021/04/17 08:14:46;;;;;;;4.85;3.28;;;12.20;44.50;;;;;;5114548;28;20016;-71
2021/04/17 08:17:12;;;;;;;5.65;3.63;;;12.30;45.00;;;;;;5114656;28;20020;-70
2021/04/17 08:19:38;;;;;;;4.22;3.47;;;12.40;44.70;;;;;;5114506;28;20020;-71
2021/04/17 08:22:04;;;;;;;4.57;3.88;;;12.50;44.40;;;;;;5113714;28;20078;-71
2021/04/17 08:24:31;;;;;;;5.03;3.90;;;12.50;44.10;;;;;;5113740;28;20047;-71
2021/04/17 08:26:59;;;;;;;5.25;3.90;;;12.60;43.40;;;;;;5113645;28;20019;-71
2021/04/17 08:29:50;;;;;;;7.07;3.83;;;12.70;43.70;;;;;;5114405;28;20023;-71
2021/04/17 08:32:30;;;;;;;6.03;3.80;;;12.80;45.30;;;;;;5114287;28;20016;-71
2021/04/17 08:35:03;;;;;;;4.43;3.70;;;12.80;43.00;;;;;;5113834;28;20100;-71
2021/04/17 08:37:30;;;;;;;4.60;3.70;;;12.80;43.20;;;;;;5113424;28;20031;-71
2021/04/17 08:39:57;;;;;;;5.63;3.38;;;12.90;43.10;;;;;;5113498;28;20044;-71
2021/04/17 08:42:45;;;;;;;4.90;4.00;;;13.00;43.40;;;;;;5112976;28;20024;-71
2021/04/17 08:45:13;;;;;;;6.82;3.85;;;;;;;;;;5113445;28;20050;-71
2021/04/17 08:47:53;;;;;;;4.25;3.47;;;13.20;42.50;;;;;;5113134;28;20376;-70
2021/04/17 08:50:22;;;;;;;4.97;3.28;;;13.30;43.90;;;;;;5114149;28;20031;-71
2021/04/17 08:52:55;;;;;;;5.20;3.42;;;13.40;42.10;;;;;;5113844;28;20102;-71
2021/04/17 08:55:21;;;;;;;4.15;3.42;;;13.50;41.70;;;;;;5113980;28;20421;-71
2021/04/17 08:58:13;;;;;;;4.35;3.08;;;13.50;42.00;;;;;;5113773;28;20015;-71
2021/04/17 09:00:43;;;;;;;9.50;3.58;;;13.60;42.40;;;;;;5113897;28;20448;-71
2021/04/17 09:03:08;;;;;;;7.85;3.25;;;13.70;41.90;;;;;;5113678;28;20063;-72
2021/04/17 09:05:47;;;;;;;6.18;3.78;;;13.80;43.10;;;;;;5113896;28;20062;-71
2021/04/17 09:08:15;;;;;;;8.05;3.80;;;13.90;43.50;;;;;;5113002;28;20532;-70
2021/04/17 09:10:42;;;;;;;7.05;3.22;;;14.00;42.50;;;;;;5111742;28;20098;-70
2021/04/17 09:13:15;;;;;;;5.13;3.53;;;14.00;42.10;;;;;;5113014;28;20027;-69
2021/04/17 09:15:53;;;;;;;5.93;3.25;;;14.10;41.20;;;;;;5114015;28;20035;-70
2021/04/17 09:18:35;;;;;;;7.65;3.88;;;14.20;40.40;;;;;;5113912;28;20444;-70
2021/04/17 09:21:20;;;;;;;5.28;3.70;;;14.20;40.50;;;;;;5113247;28;20495;-70
2021/04/17 09:23:52;;;;;;;9.80;4.60;;;14.30;41.80;;;;;;5113504;28;20071;-70
2021/04/17 09:26:33;;;;;;;4.47;3.90;;;14.30;40.20;;;;;;5113572;28;20046;-70
2021/04/17 09:29:08;;;;;;;4.93;3.75;;;14.30;40.70;;;;;;5113410;28;20081;-70
2021/04/17 09:31:37;;;;;;;8.02;4.30;;;14.30;40.70;;;;;;5113585;28;20024;-70
2021/04/17 09:34:09;;;;;;;6.50;3.53;;;14.30;40.80;;;;;;5113560;28;20038;-72
2021/04/17 09:36:35;;;;;;;4.28;3.20;;;14.30;40.00;;;;;;5113673;28;20367;-71
2021/04/17 09:39:02;;;;;;;3.80;3.42;;;14.30;40.40;;;;;;5116231;28;20024;-71
2021/04/17 09:41:50;;;;;;;4.47;3.70;;;14.40;41.80;;;;;;5117408;28;20521;-71
2021/04/17 09:44:18;;;;;;;5.05;3.38;;;14.50;41.00;;;;;;5117760;28;20030;-71
2021/04/17 09:46:44;;;;;;;8.20;3.78;;;14.50;42.40;;;;;;5117684;28;20055;-70
2021/04/17 09:49:10;;;;;;;4.85;3.05;;;14.60;40.60;;;;;;5117732;28;20043;-71
2021/04/17 09:51:36;;;;;;;6.82;3.35;;;14.60;41.90;;;;;;5115911;28;20464;-71
2021/04/17 09:54:04;;;;;;;3.92;3.15;;;14.70;40.80;;;;;;5115854;28;20032;-71
2021/04/17 09:56:41;;;;;;;3.80;3.10;;;14.80;40.00;;;;;;5117493;28;20058;-71
2021/04/17 09:59:17;;;;;;;5.28;3.15;;;14.80;39.50;;;;;;5117594;28;20514;-70
2021/04/17 10:01:53;;;;;;;3.45;2.80;;;14.90;40.70;;;;;;5117384;28;20039;-71
2021/04/17 10:04:19;;;;;;;5.28;2.90;;;14.90;39.30;;;;;;5117419;28;20069;-70
2021/04/17 10:06:57;;;;;;;5.63;3.10;;;15.00;41.00;;;;;;5117342;28;20016;-71
2021/04/17 10:09:23;;;;;;;4.43;3.13;;;15.10;39.00;;;;;;5115895;28;20031;-71
2021/04/17 10:11:49;;;;;;;4.50;3.38;;;15.10;40.40;;;;;;5117015;28;20024;-70
2021/04/17 10:14:17;;;;;;;3.65;2.83;;;15.20;39.20;;;;;;5116523;28;20104;-70
2021/04/17 10:16:48;;;;;;;4.25;3.03;;;15.20;39.40;;;;;;5117146;28;20020;-70
2021/04/17 10:19:19;;;;;;;3.53;2.72;;;15.20;37.80;;;;;;5116148;28;20517;-69
2021/04/17 10:21:53;;;;;;;7.05;2.97;;;15.20;37.70;;;;;;5115510;28;20137;-69
2021/04/17 10:24:22;;;;;;;3.95;2.78;;;15.10;38.20;;;;;;5115414;28;20031;-69
2021/04/17 10:26:50;;;;;;;3.28;2.70;;;15.20;38.90;;;;;;5115808;28;20028;-69
2021/04/17 10:29:15;;;;;;;4.93;2.90;;;15.30;37.40;;;;;;5117092;28;20027;-68
2021/04/17 10:31:41;;;;;;;8.45;3.00;;;15.30;38.80;;;;;;5115402;28;20023;-68
2021/04/17 10:34:07;;;;;;;3.25;2.95;;;15.40;38.70;;;;;;5116894;28;20081;-69
2021/04/17 10:36:33;;;;;;;4.40;3.00;;;15.50;37.70;;;;;;5116588;28;20144;-69
2021/04/17 10:39:07;;;;;;;5.20;2.83;;;15.50;38.80;;;;;;5115639;28;20024;-71
2021/04/17 10:41:33;;;;;;;7.85;3.10;;;15.50;39.90;;;;;;5116187;28;20478;-71
2021/04/17 10:44:15;;;;;;;3.13;2.65;;;15.50;39.10;;;;;;5116358;28;20415;-71
2021/04/17 10:46:42;;;;;;;6.00;3.08;;;15.70;39.10;;;;;;5116882;28;20019;-70
2021/04/17 10:49:08;;;;;;;5.68;3.13;;;15.70;39.10;;;;;;5116606;28;20028;-70
2021/04/17 10:51:39;;;;;;;4.32;2.47;;;15.70;38.00;;;;;;5114177;28;20024;-70
2021/04/17 10:54:04;;;;;;;3.75;2.72;;;15.70;37.00;;;;;;5116058;28;20069;-71
2021/04/17 10:56:31;;;;;;;4.80;2.72;;;15.60;37.70;;;;;;5116261;28;20398;-70
2021/04/17 10:59:05;;;;;;;5.13;3.10;;;15.70;38.10;;;;;;5115054;28;20020;-71
2021/04/17 11:01:37;;;;;;;6.18;3.10;;;15.70;37.10;;;;;;5116070;28;20031;-71
2021/04/17 11:04:04;;;;;;;5.38;2.80;;;15.70;37.60;;;;;;5116303;28;20016;-70
2021/04/17 11:06:34;;;;;;;3.83;2.70;;;15.70;36.30;;;;;;5116003;28;20024;-71
2021/04/17 11:09:07;;;;;;;5.25;3.05;;;15.70;37.20;;;;;;5115935;28;20468;-70
2021/04/17 11:11:33;;;;;;;9.25;3.30;;;15.80;39.10;;;;;;5115599;28;20019;-71
2021/04/17 11:14:01;;;;;;;5.10;3.38;;;15.70;36.50;;;;;;5116132;28;20464;-71
2021/04/17 11:16:41;;;;;;;4.15;3.00;;;15.80;37.90;;;;;;5115995;28;20023;-71
2021/04/17 11:19:43;;;;;;;3.42;2.80;;;15.80;36.60;;;;;;5115914;28;20110;-71
2021/04/17 11:22:13;;;;;;;6.82;3.40;;;15.90;37.40;;;;;;5115626;28;20495;-71
2021/04/17 11:25:02;;;;;;;4.90;2.70;;;16.00;38.00;;;;;;5115994;28;20041;-71
2021/04/17 11:27:30;;;;;;;6.22;3.15;;;16.10;40.00;;;;;;5115349;28;20070;-71
2021/04/17 11:29:56;;;;;;;4.45;2.65;;;16.30;38.90;;;;;;5115270;28;20465;-71
2021/04/17 11:32:22;;;;;;;3.35;2.30;;;16.50;39.70;;;;;;5114917;28;20058;-71
2021/04/17 11:34:50;;;;;;;5.07;1.60;;;16.60;39.50;;;;;;5114358;28;20035;-71
2021/04/17 11:37:16;;;;;;;4.38;1.55;;;16.80;35.10;;;;;;5115623;28;20024;-72
2021/04/17 11:39:42;;;;;;;19.17;3.60;;;16.90;34.10;;;;;;5114197;28;20030;-72
2021/04/17 11:42:11;;;;;;;6.13;1.88;;;17.00;33.80;;;;;;5115368;28;20442;-71
2021/04/17 11:44:37;;;;;;;2.78;1.67;;;17.00;34.20;;;;;;5115675;28;20041;-72
2021/04/17 11:47:04;;;;;;;4.15;1.50;;;17.10;35.20;;;;;;5114608;28;20028;-71
2021/04/17 11:49:29;;;;;;;4.45;1.92;;;17.20;32.00;;;;;;5115064;28;20084;-71
2021/04/17 11:51:55;;;;;;;4.65;1.23;;;17.30;32.80;;;;;;5114346;28;20476;-71
2021/04/17 11:54:21;;;;;;;4.78;1.52;;;17.30;32.50;;;;;;5115145;28;20024;-72
2021/04/17 11:56:47;;;;;;;2.97;1.35;;;17.40;33.80;;;;;;5115214;28;20023;-71
2021/04/17 11:59:13;;;;;;;2.63;1.38;;;17.40;32.10;;;;;;5111975;28;20495;-71
2021/04/17 12:01:38;;;;;;;8.15;1.75;;;17.50;33.20;;;;;;5111104;28;20024;-71
2021/04/17 12:04:04;;;;;;;9.35;2.13;;;17.60;32.30;;;;;;5113062;28;20133;-71
2021/04/17 12:06:30;;;;;;;3.97;1.80;;;17.70;32.10;;;;;;5114224;28;20051;-71
2021/04/17 12:08:56;;;;;;;13.40;1.77;;;17.70;31.50;;;;;;5114703;28;20049;-71
2021/04/17 12:11:23;;;;;;;4.50;1.70;;;17.80;32.90;;;;;;5114547;28;20528;-71
2021/04/17 12:13:49;;;;;;;3.17;1.80;;;17.90;30.60;;;;;;5114414;28;20027;-71
2021/04/17 12:16:15;;;;;;;2.25;1.42;;;17.90;31.10;;;;;;5114542;28;20027;-71
2021/04/17 12:18:41;;;;;;;2.80;1.75;;;18.00;30.70;;;;;;5114690;28;20085;-71
2021/04/17 12:21:07;;;;;;;6.35;2.30;;;18.00;31.50;;;;;;5114224;28;20487;-71
2021/04/17 12:23:33;;;;;;;4.60;1.98;;;18.00;31.50;;;;;;5114557;28;20438;-72
2021/04/17 12:25:58;;;;;;;3.70;1.88;;;18.00;31.40;;;;;;5114804;28;20028;-72
2021/04/17 12:28:25;;;;;;;10.25;1.92;;;18.00;31.50;;;;;;5114074;28;20031;-71
2021/04/17 12:30:55;;;;;;;2.63;1.67;;;18.10;32.00;;;;;;5113127;28;20098;-71
2021/04/17 12:33:21;;;;;;;4.70;2.25;;;18.10;32.40;;;;;;5112619;28;20066;-71
2021/04/17 12:35:48;;;;;;;5.93;1.60;;;18.10;32.60;;;;;;5110236;28;20368;-71
2021/04/17 12:38:14;;;;;;;3.70;1.70;;;18.10;30.00;;;;;;5110597;28;20015;-72
2021/04/17 12:40:39;;;;;;;4.40;2.20;;;18.00;29.40;;;;;;5112618;28;20020;-71
2021/04/17 12:43:07;;;;;;;4.13;1.50;;;17.90;30.10;;;;;;5113442;28;20091;-71
2021/04/17 12:45:34;;;;;;;2.10;1.73;;;17.90;31.10;;;;;;5113764;28;20325;-71
2021/04/17 12:48:00;;;;;;;5.05;1.90;;;17.90;32.20;;;;;;5114415;28;20019;-72
2021/04/17 12:50:26;;;;;;;7.82;2.00;;;17.90;32.30;;;;;;5114165;28;20064;-72
2021/04/17 12:52:52;;;;;;;10.07;2.58;;;18.00;31.50;;;;;;5113992;28;20148;-71
2021/04/17 12:55:18;;;;;;;6.20;2.13;;;18.00;31.10;;;;;;5113927;28;20023;-70